sensor_id;sensor_type;location;lat;lon;timestamp;pressure;altitude;pressure_sealevel;temperature
12918;BMP180;6526;54.312;13.092;2023-02-01T00:00:30;100796.00;;;7.20
12918;BMP180;6526;54.312;13.092;2023-02-01T00:02:56;100817.00;;;7.20
12918;BMP180;6526;54.312;13.092;2023-02-01T00:05:22;100814.00;;;7.20
12918;BMP180;6526;54.312;13.092;2023-02-01T00:07:48;100787.00;;;7.40
12918;BMP180;6526;54.312;13.092;2023-02-01T00:10:15;100813.00;;;7.40
12918;BMP180;6526;54.312;13.092;2023-02-01T00:12:41;100811.00;;;7.40
12918;BMP180;6526;54.312;13.092;2023-02-01T00:15:07;100816.00;;;7.30
12918;BMP180;6526;54.312;13.092;2023-02-01T00:17:33;100823.00;;;7.30
12918;BMP180;6526;54.312;13.092;2023-02-01T00:19:59;100820.00;;;7.30
12918;BMP180;6526;54.312;13.092;2023-02-01T00:22:25;100819.00;;;7.40
12918;BMP180;6526;54.312;13.092;2023-02-01T00:24:51;100806.00;;;7.40
12918;BMP180;6526;54.312;13.092;2023-02-01T00:27:18;100815.00;;;7.40
12918;BMP180;6526;54.312;13.092;2023-02-01T00:29:46;100803.00;;;7.40
12918;BMP180;6526;54.312;13.092;2023-02-01T00:32:13;100812.00;;;7.40
12918;BMP180;6526;54.312;13.092;2023-02-01T00:34:39;100804.00;;;7.40
12918;BMP180;6526;54.312;13.092;2023-02-01T00:37:05;100820.00;;;7.40
12918;BMP180;6526;54.312;13.092;2023-02-01T00:39:31;100797.00;;;7.50
12918;BMP180;6526;54.312;13.092;2023-02-01T00:41:57;100780.00;;;7.50
12918;BMP180;6526;54.312;13.092;2023-02-01T00:44:23;100794.00;;;7.40
12918;BMP180;6526;54.312;13.092;2023-02-01T00:46:49;100807.00;;;7.50
12918;BMP180;6526;54.312;13.092;2023-02-01T00:49:15;100814.00;;;7.50
12918;BMP180;6526;54.312;13.092;2023-02-01T00:51:41;100808.00;;;7.50
12918;BMP180;6526;54.312;13.092;2023-02-01T00:54:07;100800.00;;;7.50
12918;BMP180;6526;54.312;13.092;2023-02-01T00:56:33;100800.00;;;7.50
12918;BMP180;6526;54.312;13.092;2023-02-01T00:58:59;100805.00;;;7.60
12918;BMP180;6526;54.312;13.092;2023-02-01T01:01:27;100802.00;;;7.60
12918;BMP180;6526;54.312;13.092;2023-02-01T01:03:55;100816.00;;;7.50
12918;BMP180;6526;54.312;13.092;2023-02-01T01:06:27;100807.00;;;7.50
12918;BMP180;6526;54.312;13.092;2023-02-01T01:08:55;100806.00;;;7.60
12918;BMP180;6526;54.312;13.092;2023-02-01T01:11:25;100819.00;;;7.50
12918;BMP180;6526;54.312;13.092;2023-02-01T01:13:53;100814.00;;;7.70
12918;BMP180;6526;54.312;13.092;2023-02-01T01:16:20;100796.00;;;7.70
12918;BMP180;6526;54.312;13.092;2023-02-01T01:18:47;100819.00;;;7.70
12918;BMP180;6526;54.312;13.092;2023-02-01T01:21:14;100813.00;;;7.70
12918;BMP180;6526;54.312;13.092;2023-02-01T01:23:41;100812.00;;;7.60
12918;BMP180;6526;54.312;13.092;2023-02-01T01:26:09;100807.00;;;7.50
12918;BMP180;6526;54.312;13.092;2023-02-01T01:28:36;100804.00;;;7.60
12918;BMP180;6526;54.312;13.092;2023-02-01T01:31:02;100808.00;;;7.60
12918;BMP180;6526;54.312;13.092;2023-02-01T01:33:28;100803.00;;;7.60
12918;BMP180;6526;54.312;13.092;2023-02-01T01:35:55;100816.00;;;7.60
12918;BMP180;6526;54.312;13.092;2023-02-01T01:38:21;100805.00;;;7.60
12918;BMP180;6526;54.312;13.092;2023-02-01T01:40:47;100825.00;;;7.60
12918;BMP180;6526;54.312;13.092;2023-02-01T01:43:17;100822.00;;;7.60
12918;BMP180;6526;54.312;13.092;2023-02-01T01:45:43;100814.00;;;7.60
12918;BMP180;6526;54.312;13.092;2023-02-01T01:48:29;100822.00;;;7.60
12918;BMP180;6526;54.312;13.092;2023-02-01T01:51:06;100817.00;;;7.50
12918;BMP180;6526;54.312;13.092;2023-02-01T01:53:40;100830.00;;;7.60
12918;BMP180;6526;54.312;13.092;2023-02-01T01:56:06;100828.00;;;7.50
12918;BMP180;6526;54.312;13.092;2023-02-01T01:58:33;100820.00;;;7.50
12918;BMP180;6526;54.312;13.092;2023-02-01T02:01:00;100825.00;;;7.40
12918;BMP180;6526;54.312;13.092;2023-02-01T02:03:33;100819.00;;;7.40
12918;BMP180;6526;54.312;13.092;2023-02-01T02:06:02;100824.00;;;7.50
12918;BMP180;6526;54.312;13.092;2023-02-01T02:08:30;100822.00;;;7.40
12918;BMP180;6526;54.312;13.092;2023-02-01T02:10:56;100813.00;;;7.50
12918;BMP180;6526;54.312;13.092;2023-02-01T02:13:35;100826.00;;;7.50
12918;BMP180;6526;54.312;13.092;2023-02-01T02:16:29;100816.00;;;7.40
12918;BMP180;6526;54.312;13.092;2023-02-01T02:41:33;100777.00;;;7.20
12918;BMP180;6526;54.312;13.092;2023-02-01T02:44:45;100795.00;;;7.10
12918;BMP180;6526;54.312;13.092;2023-02-01T02:47:41;100778.00;;;7.20
12918;BMP180;6526;54.312;13.092;2023-02-01T02:50:35;100806.00;;;7.20
12918;BMP180;6526;54.312;13.092;2023-02-01T02:56:30;100814.00;;;7.10
12918;BMP180;6526;54.312;13.092;2023-02-01T02:59:17;100794.00;;;7.10
12918;BMP180;6526;54.312;13.092;2023-02-01T03:02:04;100794.00;;;7.10
12918;BMP180;6526;54.312;13.092;2023-02-01T03:04:53;100783.00;;;7.10
12918;BMP180;6526;54.312;13.092;2023-02-01T03:10:47;100776.00;;;7.00
12918;BMP180;6526;54.312;13.092;2023-02-01T03:13:23;100793.00;;;7.00
12918;BMP180;6526;54.312;13.092;2023-02-01T03:15:56;100768.00;;;6.90
12918;BMP180;6526;54.312;13.092;2023-02-01T03:18:40;100771.00;;;6.90
12918;BMP180;6526;54.312;13.092;2023-02-01T03:21:13;100774.00;;;6.90
12918;BMP180;6526;54.312;13.092;2023-02-01T03:23:41;100741.00;;;6.90
12918;BMP180;6526;54.312;13.092;2023-02-01T03:26:12;100772.00;;;6.80
12918;BMP180;6526;54.312;13.092;2023-02-01T03:28:47;100757.00;;;6.80
12918;BMP180;6526;54.312;13.092;2023-02-01T03:31:14;100767.00;;;6.90
12918;BMP180;6526;54.312;13.092;2023-02-01T03:33:40;100761.00;;;7.00
12918;BMP180;6526;54.312;13.092;2023-02-01T03:36:30;100759.00;;;7.00
12918;BMP180;6526;54.312;13.092;2023-02-01T03:39:17;100761.00;;;6.90
12918;BMP180;6526;54.312;13.092;2023-02-01T03:41:55;100765.00;;;6.90
12918;BMP180;6526;54.312;13.092;2023-02-01T03:44:38;100758.00;;;7.00
12918;BMP180;6526;54.312;13.092;2023-02-01T03:47:08;100759.00;;;6.90
12918;BMP180;6526;54.312;13.092;2023-02-01T03:49:40;100755.00;;;6.90
12918;BMP180;6526;54.312;13.092;2023-02-01T03:52:14;100746.00;;;7.00
12918;BMP180;6526;54.312;13.092;2023-02-01T03:54:43;100746.00;;;7.00
12918;BMP180;6526;54.312;13.092;2023-02-01T03:57:14;100759.00;;;7.00
12918;BMP180;6526;54.312;13.092;2023-02-01T03:59:44;100761.00;;;7.10
12918;BMP180;6526;54.312;13.092;2023-02-01T04:02:10;100769.00;;;7.10
12918;BMP180;6526;54.312;13.092;2023-02-01T04:04:36;100755.00;;;7.10
12918;BMP180;6526;54.312;13.092;2023-02-01T04:07:03;100772.00;;;7.00
12918;BMP180;6526;54.312;13.092;2023-02-01T04:09:29;100760.00;;;6.90
12918;BMP180;6526;54.312;13.092;2023-02-01T04:11:55;100766.00;;;7.00
12918;BMP180;6526;54.312;13.092;2023-02-01T04:14:21;100764.00;;;7.00
12918;BMP180;6526;54.312;13.092;2023-02-01T04:16:47;100762.00;;;7.00
12918;BMP180;6526;54.312;13.092;2023-02-01T04:19:13;100758.00;;;7.00
12918;BMP180;6526;54.312;13.092;2023-02-01T04:21:39;100754.00;;;7.20
12918;BMP180;6526;54.312;13.092;2023-02-01T04:24:06;100742.00;;;7.20
12918;BMP180;6526;54.312;13.092;2023-02-01T04:26:32;100765.00;;;7.20
12918;BMP180;6526;54.312;13.092;2023-02-01T04:28:58;100753.00;;;7.10
12918;BMP180;6526;54.312;13.092;2023-02-01T04:31:24;100748.00;;;7.20
12918;BMP180;6526;54.312;13.092;2023-02-01T04:33:54;100748.00;;;7.10
12918;BMP180;6526;54.312;13.092;2023-02-01T04:36:21;100755.00;;;7.20
12918;BMP180;6526;54.312;13.092;2023-02-01T04:38:48;100743.00;;;7.10
12918;BMP180;6526;54.312;13.092;2023-02-01T04:41:15;100738.00;;;7.10
12918;BMP180;6526;54.312;13.092;2023-02-01T04:43:45;100740.00;;;7.10
12918;BMP180;6526;54.312;13.092;2023-02-01T04:46:11;100730.00;;;7.10
12918;BMP180;6526;54.312;13.092;2023-02-01T04:48:37;100736.00;;;7.10
12918;BMP180;6526;54.312;13.092;2023-02-01T04:51:03;100737.00;;;7.00
12918;BMP180;6526;54.312;13.092;2023-02-01T04:53:29;100741.00;;;7.00
12918;BMP180;6526;54.312;13.092;2023-02-01T04:55:56;100728.00;;;7.10
12918;BMP180;6526;54.312;13.092;2023-02-01T04:58:22;100735.00;;;7.00
12918;BMP180;6526;54.312;13.092;2023-02-01T05:00:48;100742.00;;;7.10
12918;BMP180;6526;54.312;13.092;2023-02-01T05:03:15;100747.00;;;7.00
12918;BMP180;6526;54.312;13.092;2023-02-01T05:05:41;100735.00;;;7.00
12918;BMP180;6526;54.312;13.092;2023-02-01T05:08:07;100740.00;;;7.10
12918;BMP180;6526;54.312;13.092;2023-02-01T05:10:33;100732.00;;;7.10
12918;BMP180;6526;54.312;13.092;2023-02-01T05:12:59;100729.00;;;7.20
12918;BMP180;6526;54.312;13.092;2023-02-01T05:15:44;100739.00;;;7.10
12918;BMP180;6526;54.312;13.092;2023-02-01T05:18:12;100736.00;;;6.90
12918;BMP180;6526;54.312;13.092;2023-02-01T05:20:38;100729.00;;;6.80
12918;BMP180;6526;54.312;13.092;2023-02-01T05:23:04;100729.00;;;6.80
12918;BMP180;6526;54.312;13.092;2023-02-01T05:25:31;100728.00;;;6.80
12918;BMP180;6526;54.312;13.092;2023-02-01T05:27:57;100718.00;;;6.80
12918;BMP180;6526;54.312;13.092;2023-02-01T05:30:23;100727.00;;;7.00
12918;BMP180;6526;54.312;13.092;2023-02-01T05:32:53;100725.00;;;7.10
12918;BMP180;6526;54.312;13.092;2023-02-01T05:35:19;100711.00;;;7.10
12918;BMP180;6526;54.312;13.092;2023-02-01T05:37:46;100718.00;;;7.10
12918;BMP180;6526;54.312;13.092;2023-02-01T05:40:12;100723.00;;;7.20
12918;BMP180;6526;54.312;13.092;2023-02-01T05:42:38;100727.00;;;7.20
12918;BMP180;6526;54.312;13.092;2023-02-01T05:45:05;100712.00;;;7.30
12918;BMP180;6526;54.312;13.092;2023-02-01T05:47:33;100719.00;;;7.30
12918;BMP180;6526;54.312;13.092;2023-02-01T05:49:59;100726.00;;;7.40
12918;BMP180;6526;54.312;13.092;2023-02-01T05:52:25;100714.00;;;7.40
12918;BMP180;6526;54.312;13.092;2023-02-01T05:54:51;100721.00;;;7.40
12918;BMP180;6526;54.312;13.092;2023-02-01T05:57:18;100704.00;;;7.40
12918;BMP180;6526;54.312;13.092;2023-02-01T05:59:44;100706.00;;;7.40
12918;BMP180;6526;54.312;13.092;2023-02-01T06:02:11;100708.00;;;7.50
12918;BMP180;6526;54.312;13.092;2023-02-01T06:04:38;100715.00;;;7.60
12918;BMP180;6526;54.312;13.092;2023-02-01T06:07:05;100710.00;;;7.60
12918;BMP180;6526;54.312;13.092;2023-02-01T06:09:33;100705.00;;;7.60
12918;BMP180;6526;54.312;13.092;2023-02-01T06:11:59;100698.00;;;7.60
12918;BMP180;6526;54.312;13.092;2023-02-01T06:14:27;100701.00;;;7.60
12918;BMP180;6526;54.312;13.092;2023-02-01T06:16:54;100707.00;;;7.60
12918;BMP180;6526;54.312;13.092;2023-02-01T06:19:21;100703.00;;;7.70
12918;BMP180;6526;54.312;13.092;2023-02-01T06:21:47;100700.00;;;7.70
12918;BMP180;6526;54.312;13.092;2023-02-01T06:24:13;100696.00;;;7.70
12918;BMP180;6526;54.312;13.092;2023-02-01T06:26:39;100700.00;;;7.70
12918;BMP180;6526;54.312;13.092;2023-02-01T06:29:07;100700.00;;;7.70
12918;BMP180;6526;54.312;13.092;2023-02-01T06:31:33;100694.00;;;7.70
12918;BMP180;6526;54.312;13.092;2023-02-01T06:34:00;100696.00;;;7.70
12918;BMP180;6526;54.312;13.092;2023-02-01T06:36:26;100700.00;;;7.80
12918;BMP180;6526;54.312;13.092;2023-02-01T06:38:52;100700.00;;;7.80
12918;BMP180;6526;54.312;13.092;2023-02-01T06:41:18;100691.00;;;7.80
12918;BMP180;6526;54.312;13.092;2023-02-01T06:43:46;100682.00;;;7.80
12918;BMP180;6526;54.312;13.092;2023-02-01T06:46:13;100692.00;;;7.80
12918;BMP180;6526;54.312;13.092;2023-02-01T06:48:39;100677.00;;;7.80
12918;BMP180;6526;54.312;13.092;2023-02-01T06:51:06;100690.00;;;7.80
12918;BMP180;6526;54.312;13.092;2023-02-01T06:53:32;100696.00;;;7.90
12918;BMP180;6526;54.312;13.092;2023-02-01T06:56:00;100690.00;;;7.90
12918;BMP180;6526;54.312;13.092;2023-02-01T06:58:31;100696.00;;;7.90
12918;BMP180;6526;54.312;13.092;2023-02-01T07:01:04;100689.00;;;7.80
12918;BMP180;6526;54.312;13.092;2023-02-01T07:03:30;100699.00;;;7.90
12918;BMP180;6526;54.312;13.092;2023-02-01T07:05:57;100681.00;;;7.80
12918;BMP180;6526;54.312;13.092;2023-02-01T07:08:33;100681.00;;;7.80
12918;BMP180;6526;54.312;13.092;2023-02-01T07:11:04;100692.00;;;7.80
12918;BMP180;6526;54.312;13.092;2023-02-01T07:13:30;100684.00;;;7.80
12918;BMP180;6526;54.312;13.092;2023-02-01T07:15:59;100681.00;;;7.80
12918;BMP180;6526;54.312;13.092;2023-02-01T07:18:26;100678.00;;;7.80
12918;BMP180;6526;54.312;13.092;2023-02-01T07:20:52;100663.00;;;7.80
12918;BMP180;6526;54.312;13.092;2023-02-01T07:23:18;100665.00;;;7.80
12918;BMP180;6526;54.312;13.092;2023-02-01T07:25:46;100647.00;;;7.70
12918;BMP180;6526;54.312;13.092;2023-02-01T07:28:12;100653.00;;;7.70
12918;BMP180;6526;54.312;13.092;2023-02-01T07:30:38;100644.00;;;7.80
12918;BMP180;6526;54.312;13.092;2023-02-01T07:33:04;100658.00;;;7.80
12918;BMP180;6526;54.312;13.092;2023-02-01T07:35:30;100661.00;;;7.80
12918;BMP180;6526;54.312;13.092;2023-02-01T07:37:59;100683.00;;;7.70
12918;BMP180;6526;54.312;13.092;2023-02-01T07:40:25;100674.00;;;7.80
12918;BMP180;6526;54.312;13.092;2023-02-01T07:42:57;100699.00;;;7.50
12918;BMP180;6526;54.312;13.092;2023-02-01T07:45:24;100706.00;;;7.40
12918;BMP180;6526;54.312;13.092;2023-02-01T07:47:52;100725.00;;;7.20
12918;BMP180;6526;54.312;13.092;2023-02-01T07:50:19;100704.00;;;7.10
12918;BMP180;6526;54.312;13.092;2023-02-01T07:52:45;100694.00;;;7.10
12918;BMP180;6526;54.312;13.092;2023-02-01T07:55:11;100704.00;;;7.00
12918;BMP180;6526;54.312;13.092;2023-02-01T07:57:37;100690.00;;;7.00
12918;BMP180;6526;54.312;13.092;2023-02-01T08:00:03;100679.00;;;7.00
12918;BMP180;6526;54.312;13.092;2023-02-01T08:02:48;100681.00;;;7.00
12918;BMP180;6526;54.312;13.092;2023-02-01T08:05:14;100686.00;;;6.90
12918;BMP180;6526;54.312;13.092;2023-02-01T08:07:40;100683.00;;;7.00
12918;BMP180;6526;54.312;13.092;2023-02-01T08:10:07;100692.00;;;7.10
12918;BMP180;6526;54.312;13.092;2023-02-01T08:12:36;100694.00;;;7.00
12918;BMP180;6526;54.312;13.092;2023-02-01T08:15:04;100685.00;;;6.90
12918;BMP180;6526;54.312;13.092;2023-02-01T08:17:30;100681.00;;;6.90
12918;BMP180;6526;54.312;13.092;2023-02-01T08:19:56;100691.00;;;6.90
12918;BMP180;6526;54.312;13.092;2023-02-01T08:22:22;100683.00;;;6.90
12918;BMP180;6526;54.312;13.092;2023-02-01T08:24:48;100685.00;;;7.00
12918;BMP180;6526;54.312;13.092;2023-02-01T08:27:15;100679.00;;;7.00
12918;BMP180;6526;54.312;13.092;2023-02-01T08:29:41;100696.00;;;7.00
12918;BMP180;6526;54.312;13.092;2023-02-01T08:32:07;100695.00;;;7.00
12918;BMP180;6526;54.312;13.092;2023-02-01T08:34:33;100688.00;;;7.10
12918;BMP180;6526;54.312;13.092;2023-02-01T08:36:59;100703.00;;;7.00
12918;BMP180;6526;54.312;13.092;2023-02-01T08:39:26;100692.00;;;6.90
12918;BMP180;6526;54.312;13.092;2023-02-01T08:41:52;100705.00;;;7.10
12918;BMP180;6526;54.312;13.092;2023-02-01T08:44:37;100697.00;;;7.10
12918;BMP180;6526;54.312;13.092;2023-02-01T08:47:03;100716.00;;;7.10
12918;BMP180;6526;54.312;13.092;2023-02-01T08:49:29;100726.00;;;7.10
12918;BMP180;6526;54.312;13.092;2023-02-01T08:51:55;100728.00;;;7.00
12918;BMP180;6526;54.312;13.092;2023-02-01T08:54:22;100722.00;;;6.90
12918;BMP180;6526;54.312;13.092;2023-02-01T08:56:48;100720.00;;;6.80
12918;BMP180;6526;54.312;13.092;2023-02-01T08:59:14;100731.00;;;6.60
12918;BMP180;6526;54.312;13.092;2023-02-01T09:01:40;100732.00;;;6.80
12918;BMP180;6526;54.312;13.092;2023-02-01T09:04:06;100737.00;;;6.70
12918;BMP180;6526;54.312;13.092;2023-02-01T09:06:32;100718.00;;;6.60
12918;BMP180;6526;54.312;13.092;2023-02-01T09:08:58;100707.00;;;6.60
12918;BMP180;6526;54.312;13.092;2023-02-01T09:11:24;100698.00;;;6.40
12918;BMP180;6526;54.312;13.092;2023-02-01T09:13:51;100694.00;;;6.40
12918;BMP180;6526;54.312;13.092;2023-02-01T09:16:17;100697.00;;;6.30
12918;BMP180;6526;54.312;13.092;2023-02-01T09:18:43;100713.00;;;6.40
12918;BMP180;6526;54.312;13.092;2023-02-01T09:21:09;100709.00;;;6.60
12918;BMP180;6526;54.312;13.092;2023-02-01T09:23:36;100715.00;;;6.60
12918;BMP180;6526;54.312;13.092;2023-02-01T09:26:03;100717.00;;;6.60
12918;BMP180;6526;54.312;13.092;2023-02-01T09:28:29;100719.00;;;6.50
12918;BMP180;6526;54.312;13.092;2023-02-01T09:30:57;100726.00;;;6.40
12918;BMP180;6526;54.312;13.092;2023-02-01T09:33:23;100718.00;;;6.40
12918;BMP180;6526;54.312;13.092;2023-02-01T09:35:54;100723.00;;;6.40
12918;BMP180;6526;54.312;13.092;2023-02-01T09:38:20;100695.00;;;6.40
12918;BMP180;6526;54.312;13.092;2023-02-01T09:40:47;100725.00;;;6.70
12918;BMP180;6526;54.312;13.092;2023-02-01T09:46:27;100732.00;;;6.60
12918;BMP180;6526;54.312;13.092;2023-02-01T09:48:56;100719.00;;;6.50
12918;BMP180;6526;54.312;13.092;2023-02-01T09:51:31;100730.00;;;6.60
12918;BMP180;6526;54.312;13.092;2023-02-01T09:54:13;100692.00;;;6.70
12918;BMP180;6526;54.312;13.092;2023-02-01T09:56:47;100724.00;;;6.70
12918;BMP180;6526;54.312;13.092;2023-02-01T09:59:20;100742.00;;;6.70
12918;BMP180;6526;54.312;13.092;2023-02-01T10:01:49;100729.00;;;6.90
12918;BMP180;6526;54.312;13.092;2023-02-01T10:04:16;100728.00;;;6.90
12918;BMP180;6526;54.312;13.092;2023-02-01T10:09:58;100730.00;;;7.00
12918;BMP180;6526;54.312;13.092;2023-02-01T10:13:05;100742.00;;;7.00
12918;BMP180;6526;54.312;13.092;2023-02-01T10:15:41;100742.00;;;7.00
12918;BMP180;6526;54.312;13.092;2023-02-01T10:21:25;100732.00;;;7.00
12918;BMP180;6526;54.312;13.092;2023-02-01T10:24:02;100725.00;;;7.10
12918;BMP180;6526;54.312;13.092;2023-02-01T10:26:38;100727.00;;;7.10
12918;BMP180;6526;54.312;13.092;2023-02-01T10:29:16;100719.00;;;7.10
12918;BMP180;6526;54.312;13.092;2023-02-01T10:31:42;100718.00;;;7.20
12918;BMP180;6526;54.312;13.092;2023-02-01T10:34:21;100722.00;;;7.10
12918;BMP180;6526;54.312;13.092;2023-02-01T10:37:07;100713.00;;;7.40
12918;BMP180;6526;54.312;13.092;2023-02-01T10:39:35;100721.00;;;7.30
12918;BMP180;6526;54.312;13.092;2023-02-01T10:42:02;100721.00;;;7.30
12918;BMP180;6526;54.312;13.092;2023-02-01T10:44:30;100723.00;;;7.30
12918;BMP180;6526;54.312;13.092;2023-02-01T10:46:57;100717.00;;;7.20
12918;BMP180;6526;54.312;13.092;2023-02-01T10:49:38;100723.00;;;7.20
12918;BMP180;6526;54.312;13.092;2023-02-01T10:52:39;100728.00;;;7.20
12918;BMP180;6526;54.312;13.092;2023-02-01T10:55:27;100733.00;;;7.20
12918;BMP180;6526;54.312;13.092;2023-02-01T10:58:02;100735.00;;;7.30
12918;BMP180;6526;54.312;13.092;2023-02-01T11:00:33;100728.00;;;7.30
12918;BMP180;6526;54.312;13.092;2023-02-01T11:03:01;100736.00;;;7.20
12918;BMP180;6526;54.312;13.092;2023-02-01T11:05:46;100742.00;;;7.20
12918;BMP180;6526;54.312;13.092;2023-02-01T11:08:17;100724.00;;;7.20
12918;BMP180;6526;54.312;13.092;2023-02-01T11:10:44;100726.00;;;7.40
12918;BMP180;6526;54.312;13.092;2023-02-01T11:13:16;100725.00;;;7.40
12918;BMP180;6526;54.312;13.092;2023-02-01T11:15:46;100728.00;;;7.30
12918;BMP180;6526;54.312;13.092;2023-02-01T11:18:25;100723.00;;;7.40
12918;BMP180;6526;54.312;13.092;2023-02-01T11:20:53;100706.00;;;7.30
12918;BMP180;6526;54.312;13.092;2023-02-01T11:23:23;100719.00;;;7.30
12918;BMP180;6526;54.312;13.092;2023-02-01T11:26:01;100698.00;;;7.40
12918;BMP180;6526;54.312;13.092;2023-02-01T11:28:31;100707.00;;;7.30
12918;BMP180;6526;54.312;13.092;2023-02-01T11:31:00;100708.00;;;7.30
12918;BMP180;6526;54.312;13.092;2023-02-01T11:33:31;100693.00;;;7.20
12918;BMP180;6526;54.312;13.092;2023-02-01T11:36:06;100698.00;;;7.20
12918;BMP180;6526;54.312;13.092;2023-02-01T11:38:34;100706.00;;;7.20
12918;BMP180;6526;54.312;13.092;2023-02-01T11:41:14;100694.00;;;7.30
12918;BMP180;6526;54.312;13.092;2023-02-01T11:44:01;100690.00;;;7.40
12918;BMP180;6526;54.312;13.092;2023-02-01T11:46:36;100689.00;;;7.60
12918;BMP180;6526;54.312;13.092;2023-02-01T11:49:23;100675.00;;;7.80
12918;BMP180;6526;54.312;13.092;2023-02-01T11:54:40;100666.00;;;7.90
12918;BMP180;6526;54.312;13.092;2023-02-01T12:00:02;100649.00;;;8.10
12918;BMP180;6526;54.312;13.092;2023-02-01T12:02:49;100646.00;;;8.30
12918;BMP180;6526;54.312;13.092;2023-02-01T12:08:40;100646.00;;;8.60
12918;BMP180;6526;54.312;13.092;2023-02-01T12:17:18;100626.00;;;8.70
12918;BMP180;6526;54.312;13.092;2023-02-01T12:20:04;100628.00;;;8.60
12918;BMP180;6526;54.312;13.092;2023-02-01T12:23:02;100627.00;;;8.40
12918;BMP180;6526;54.312;13.092;2023-02-01T12:25:40;100626.00;;;8.20
12918;BMP180;6526;54.312;13.092;2023-02-01T12:28:45;100624.00;;;8.10
12918;BMP180;6526;54.312;13.092;2023-02-01T12:42:33;100600.00;;;8.20
12918;BMP180;6526;54.312;13.092;2023-02-01T12:48:32;100592.00;;;8.40
12918;BMP180;6526;54.312;13.092;2023-02-01T12:50:59;100607.00;;;8.50
12918;BMP180;6526;54.312;13.092;2023-02-01T12:56:13;100577.00;;;8.50
12918;BMP180;6526;54.312;13.092;2023-02-01T12:58:53;100596.00;;;8.50
12918;BMP180;6526;54.312;13.092;2023-02-01T13:04:12;100578.00;;;8.50
12918;BMP180;6526;54.312;13.092;2023-02-01T13:09:37;100565.00;;;8.30
12918;BMP180;6526;54.312;13.092;2023-02-01T13:12:15;100571.00;;;8.30
12918;BMP180;6526;54.312;13.092;2023-02-01T13:14:49;100563.00;;;8.30
12918;BMP180;6526;54.312;13.092;2023-02-01T13:17:27;100559.00;;;8.20
12918;BMP180;6526;54.312;13.092;2023-02-01T13:19:57;100561.00;;;8.10
12918;BMP180;6526;54.312;13.092;2023-02-01T13:22:32;100561.00;;;8.00
12918;BMP180;6526;54.312;13.092;2023-02-01T13:25:10;100561.00;;;8.00
12918;BMP180;6526;54.312;13.092;2023-02-01T13:27:38;100556.00;;;8.00
12918;BMP180;6526;54.312;13.092;2023-02-01T13:36:00;100567.00;;;8.00
12918;BMP180;6526;54.312;13.092;2023-02-01T13:41:29;100561.00;;;7.90
12918;BMP180;6526;54.312;13.092;2023-02-01T13:44:12;100566.00;;;7.80
12918;BMP180;6526;54.312;13.092;2023-02-01T13:46:43;100577.00;;;7.80
12918;BMP180;6526;54.312;13.092;2023-02-01T13:49:22;100577.00;;;7.80
12918;BMP180;6526;54.312;13.092;2023-02-01T13:51:53;100581.00;;;7.60
12918;BMP180;6526;54.312;13.092;2023-02-01T13:54:36;100602.00;;;7.30
12918;BMP180;6526;54.312;13.092;2023-02-01T13:57:06;100595.00;;;7.00
12918;BMP180;6526;54.312;13.092;2023-02-01T14:05:10;100596.00;;;6.20
12918;BMP180;6526;54.312;13.092;2023-02-01T14:07:52;100588.00;;;6.20
12918;BMP180;6526;54.312;13.092;2023-02-01T14:21:25;100572.00;;;5.90
12918;BMP180;6526;54.312;13.092;2023-02-01T14:23:57;100573.00;;;5.80
12918;BMP180;6526;54.312;13.092;2023-02-01T14:29:18;100572.00;;;5.70
12918;BMP180;6526;54.312;13.092;2023-02-01T14:37:11;100557.00;;;5.70
12918;BMP180;6526;54.312;13.092;2023-02-01T14:56:00;100581.00;;;5.60
12918;BMP180;6526;54.312;13.092;2023-02-01T14:59:06;100563.00;;;5.50
12918;BMP180;6526;54.312;13.092;2023-02-01T15:01:38;100559.00;;;5.60
12918;BMP180;6526;54.312;13.092;2023-02-01T15:04:09;100556.00;;;5.50
12918;BMP180;6526;54.312;13.092;2023-02-01T15:06:52;100560.00;;;5.60
12918;BMP180;6526;54.312;13.092;2023-02-01T15:09:38;100564.00;;;5.70
12918;BMP180;6526;54.312;13.092;2023-02-01T15:12:16;100570.00;;;5.60
12918;BMP180;6526;54.312;13.092;2023-02-01T15:15:14;100565.00;;;5.60
12918;BMP180;6526;54.312;13.092;2023-02-01T15:17:41;100566.00;;;5.50
12918;BMP180;6526;54.312;13.092;2023-02-01T15:22:41;100564.00;;;5.50
12918;BMP180;6526;54.312;13.092;2023-02-01T15:25:22;100564.00;;;5.50
12918;BMP180;6526;54.312;13.092;2023-02-01T15:27:48;100571.00;;;5.50
12918;BMP180;6526;54.312;13.092;2023-02-01T15:30:27;100574.00;;;5.50
12918;BMP180;6526;54.312;13.092;2023-02-01T15:35:51;100571.00;;;5.50
12918;BMP180;6526;54.312;13.092;2023-02-01T15:43:47;100577.00;;;5.50
12918;BMP180;6526;54.312;13.092;2023-02-01T15:46:19;100581.00;;;5.50
12918;BMP180;6526;54.312;13.092;2023-02-01T15:48:52;100588.00;;;5.60
12918;BMP180;6526;54.312;13.092;2023-02-01T15:51:21;100576.00;;;5.60
12918;BMP180;6526;54.312;13.092;2023-02-01T15:53:54;100576.00;;;5.60
12918;BMP180;6526;54.312;13.092;2023-02-01T15:56:33;100575.00;;;5.60
12918;BMP180;6526;54.312;13.092;2023-02-01T15:59:01;100569.00;;;5.60
12918;BMP180;6526;54.312;13.092;2023-02-01T16:01:28;100579.00;;;5.60
12918;BMP180;6526;54.312;13.092;2023-02-01T16:06:47;100579.00;;;5.70
12918;BMP180;6526;54.312;13.092;2023-02-01T16:09:15;100576.00;;;5.80
12918;BMP180;6526;54.312;13.092;2023-02-01T16:14:14;100573.00;;;6.10
12918;BMP180;6526;54.312;13.092;2023-02-01T16:16:40;100566.00;;;6.00
12918;BMP180;6526;54.312;13.092;2023-02-01T16:19:06;100569.00;;;6.00
12918;BMP180;6526;54.312;13.092;2023-02-01T16:21:32;100569.00;;;6.00
12918;BMP180;6526;54.312;13.092;2023-02-01T16:23:58;100568.00;;;6.10
12918;BMP180;6526;54.312;13.092;2023-02-01T16:26:30;100576.00;;;6.20
12918;BMP180;6526;54.312;13.092;2023-02-01T16:28:57;100570.00;;;6.30
12918;BMP180;6526;54.312;13.092;2023-02-01T16:31:30;100567.00;;;6.30
12918;BMP180;6526;54.312;13.092;2023-02-01T16:33:57;100573.00;;;6.30
12918;BMP180;6526;54.312;13.092;2023-02-01T16:36:24;100568.00;;;6.50
12918;BMP180;6526;54.312;13.092;2023-02-01T16:38:50;100565.00;;;6.50
12918;BMP180;6526;54.312;13.092;2023-02-01T16:41:20;100576.00;;;6.50
12918;BMP180;6526;54.312;13.092;2023-02-01T16:43:50;100574.00;;;6.70
12918;BMP180;6526;54.312;13.092;2023-02-01T16:46:19;100575.00;;;6.70
12918;BMP180;6526;54.312;13.092;2023-02-01T16:48:55;100570.00;;;6.80
12918;BMP180;6526;54.312;13.092;2023-02-01T16:51:23;100576.00;;;6.80